createdAt,value
2023-03-26T00:01:46.988Z,98735.00
2023-03-26T00:04:21.990Z,98726.25
2023-03-26T00:06:50.533Z,98733.13
2023-03-26T00:09:19.291Z,98728.41
2023-03-26T00:11:47.490Z,98726.66
2023-03-26T00:14:17.954Z,98731.06
2023-03-26T00:16:47.817Z,98729.53
2023-03-26T00:19:17.053Z,98727.94
2023-03-26T00:21:45.154Z,98737.41
2023-03-26T00:24:15.493Z,98732.97
2023-03-26T00:26:45.035Z,98740.00
2023-03-26T00:29:14.141Z,98733.97
2023-03-26T00:31:46.766Z,98728.13
2023-03-26T00:34:18.821Z,98731.44
2023-03-26T00:36:47.567Z,98725.16
2023-03-26T00:39:18.104Z,98719.41
2023-03-26T00:41:47.467Z,98722.81
2023-03-26T00:44:16.049Z,98722.69
2023-03-26T00:46:44.157Z,98717.72
2023-03-26T00:49:15.036Z,98696.84
2023-03-26T00:51:43.554Z,98713.66
2023-03-26T00:54:12.121Z,98712.59
2023-03-26T00:56:40.233Z,98702.28
2023-03-26T00:59:09.540Z,98706.25
2023-03-26T01:01:38.085Z,98706.06
2023-03-26T01:04:31.230Z,98703.97
2023-03-26T01:07:09.399Z,98708.34
2023-03-26T01:09:45.348Z,98708.44
2023-03-26T01:12:18.623Z,98712.50
2023-03-26T01:14:52.058Z,98703.44
2023-03-26T01:17:22.262Z,98715.97
2023-03-26T01:20:20.756Z,98715.38
2023-03-26T01:22:52.559Z,98711.41
2023-03-26T01:25:23.690Z,98717.06
2023-03-26T01:27:56.234Z,98710.97
2023-03-26T01:30:38.138Z,98723.13
2023-03-26T01:33:08.198Z,98722.00
2023-03-26T01:35:39.214Z,98716.25
2023-03-26T01:38:40.254Z,98723.28
2023-03-26T01:41:11.645Z,98713.50
2023-03-26T01:43:46.464Z,98705.22
2023-03-26T01:46:16.185Z,98705.03
2023-03-26T01:48:46.398Z,98705.06
2023-03-26T01:51:24.595Z,98710.25
2023-03-26T01:53:53.186Z,98698.91
2023-03-26T01:57:01.302Z,98712.03
2023-03-26T01:59:35.708Z,98703.97
2023-03-26T02:02:16.032Z,98713.66
2023-03-26T02:04:53.552Z,98711.88
2023-03-26T02:07:34.793Z,98717.28
2023-03-26T02:10:10.808Z,98704.00
2023-03-26T02:12:42.426Z,98713.81
2023-03-26T02:15:11.671Z,98717.25
2023-03-26T02:17:40.603Z,98709.47
2023-03-26T02:20:11.026Z,98718.28
2023-03-26T02:22:41.231Z,98726.66
2023-03-26T02:25:12.393Z,98724.25
2023-03-26T02:27:42.768Z,98725.41
2023-03-26T02:30:15.232Z,98711.47
2023-03-26T02:32:44.223Z,98708.91
2023-03-26T02:35:13.080Z,98710.41
2023-03-26T02:37:42.370Z,98709.19
2023-03-26T02:40:11.984Z,98702.34
2023-03-26T02:42:41.078Z,98706.69
2023-03-26T02:45:09.692Z,98704.81
2023-03-26T02:47:39.327Z,98700.41
2023-03-26T02:50:10.376Z,98696.38
2023-03-26T02:52:40.281Z,98684.03
2023-03-26T02:55:09.200Z,98685.56
2023-03-26T02:57:37.700Z,98692.28
2023-03-26T03:00:15.464Z,98688.06
2023-03-26T03:02:48.557Z,98695.13
2023-03-26T03:07:58.486Z,98693.91
2023-03-26T03:10:28.432Z,98694.81
2023-03-26T03:12:59.162Z,98682.56
2023-03-26T03:15:28.491Z,98688.59
2023-03-26T03:17:56.697Z,98693.09
2023-03-26T03:20:27.459Z,98683.84
2023-03-26T03:22:55.599Z,98688.25
2023-03-26T03:25:23.854Z,98683.50
2023-03-26T03:27:54.188Z,98682.50
2023-03-26T03:30:22.455Z,98688.59
2023-03-26T03:32:55.142Z,98692.16
2023-03-26T03:35:24.030Z,98674.75
2023-03-26T03:37:52.546Z,98681.09
2023-03-26T03:40:20.809Z,98681.22
2023-03-26T03:42:49.560Z,98695.25
2023-03-26T03:45:20.301Z,98693.47
2023-03-26T03:47:49.243Z,98695.41
2023-03-26T03:50:18.360Z,98702.12
2023-03-26T03:52:47.275Z,98697.28
2023-03-26T03:55:17.613Z,98698.78
2023-03-26T03:57:46.424Z,98703.16
2023-03-26T04:00:15.839Z,98696.63
2023-03-26T04:02:46.427Z,98709.00
2023-03-26T04:05:15.262Z,98709.25
2023-03-26T04:07:44.198Z,98704.97
2023-03-26T04:10:16.288Z,98711.97
2023-03-26T04:13:05.298Z,98712.84
2023-03-26T04:15:36.251Z,98708.62
2023-03-26T04:18:04.920Z,98706.88
2023-03-26T04:20:34.117Z,98705.19
2023-03-26T04:23:03.606Z,98706.97
2023-03-26T04:25:33.513Z,98699.31
2023-03-26T04:28:06.684Z,98707.06
2023-03-26T04:30:36.616Z,98713.94
2023-03-26T04:33:06.704Z,98706.22
2023-03-26T04:35:35.627Z,98703.63
2023-03-26T04:38:08.074Z,98700.13
2023-03-26T04:40:37.448Z,98710.34
2023-03-26T04:43:06.655Z,98705.25
2023-03-26T04:45:35.473Z,98708.75
2023-03-26T04:48:04.052Z,98709.62
2023-03-26T04:50:32.187Z,98707.91
2023-03-26T04:53:00.431Z,98713.94
2023-03-26T04:55:40.207Z,98713.91
2023-03-26T04:58:09.767Z,98718.19
2023-03-26T05:00:44.442Z,98717.28
2023-03-26T05:03:12.754Z,98712.72
2023-03-26T05:05:41.374Z,98710.28
2023-03-26T05:08:10.582Z,98711.91
2023-03-26T05:10:38.784Z,98711.84
2023-03-26T05:13:08.154Z,98718.53
2023-03-26T05:15:36.671Z,98718.97
2023-03-26T05:18:04.905Z,98711.63
2023-03-26T05:20:34.007Z,98719.59
2023-03-26T05:23:03.144Z,98717.75
2023-03-26T05:25:31.780Z,98722.16
2023-03-26T05:28:01.475Z,98718.50
2023-03-26T05:30:30.979Z,98718.03
2023-03-26T05:32:59.396Z,98719.28
2023-03-26T05:35:28.411Z,98710.41
2023-03-26T05:37:56.783Z,98712.84
2023-03-26T05:40:24.932Z,98707.13
2023-03-26T05:42:53.612Z,98711.53
2023-03-26T05:45:23.815Z,98712.44
2023-03-26T05:47:54.497Z,98714.34
2023-03-26T05:50:24.128Z,98708.88
2023-03-26T05:52:52.667Z,98705.22
2023-03-26T05:55:24.428Z,98710.31
2023-03-26T05:58:01.637Z,98706.00
2023-03-26T06:00:32.218Z,98703.09
2023-03-26T06:03:02.608Z,98697.34
2023-03-26T06:05:38.155Z,98704.19
2023-03-26T06:08:09.272Z,98697.94
2023-03-26T06:10:41.516Z,98694.44
2023-03-26T06:13:12.343Z,98688.63
2023-03-26T06:15:42.429Z,98691.69
2023-03-26T06:18:11.728Z,98696.56
2023-03-26T06:20:45.172Z,98700.34
2023-03-26T06:23:16.284Z,98700.06
2023-03-26T06:25:47.163Z,98705.31
2023-03-26T06:28:16.751Z,98706.78
2023-03-26T06:30:46.184Z,98711.69
2023-03-26T06:33:14.665Z,98711.16
2023-03-26T06:35:45.661Z,98714.63
2023-03-26T06:38:14.190Z,98708.84
2023-03-26T06:40:42.667Z,98709.22
2023-03-26T06:43:14.641Z,98712.22
2023-03-26T06:45:44.634Z,98701.06
2023-03-26T06:48:14.521Z,98705.66
2023-03-26T06:50:43.365Z,98711.81
2023-03-26T06:53:11.732Z,98714.19
2023-03-26T06:55:42.083Z,98721.13
2023-03-26T06:58:12.618Z,98718.63
2023-03-26T07:00:42.386Z,98725.47
2023-03-26T07:03:12.201Z,98724.78
2023-03-26T07:05:50.080Z,98726.31
2023-03-26T07:08:20.167Z,98726.66
2023-03-26T07:10:54.162Z,98726.72
2023-03-26T07:13:22.983Z,98728.28
2023-03-26T07:15:52.744Z,98735.37
2023-03-26T07:18:21.352Z,98737.19
2023-03-26T07:20:50.750Z,98727.59
2023-03-26T07:23:21.549Z,98716.94
2023-03-26T07:25:53.247Z,98725.72
2023-03-26T07:29:03.757Z,98725.06
2023-03-26T07:31:46.978Z,98721.94
2023-03-26T07:34:44.446Z,98722.09
2023-03-26T07:37:13.358Z,98725.31
2023-03-26T07:39:46.334Z,98727.53
2023-03-26T07:42:29.033Z,98723.88
2023-03-26T07:45:33.030Z,98723.06
2023-03-26T07:48:02.421Z,98733.78
2023-03-26T07:50:31.782Z,98725.81
2023-03-26T07:53:00.283Z,98729.34
2023-03-26T07:55:29.240Z,98720.41
2023-03-26T07:58:39.797Z,98726.41
2023-03-26T08:01:28.289Z,98718.88
2023-03-26T08:04:24.199Z,98725.25
2023-03-26T08:07:03.948Z,98729.59
2023-03-26T08:09:46.074Z,98726.94
2023-03-26T08:12:28.513Z,98720.31
2023-03-26T08:15:09.089Z,98721.28
2023-03-26T08:17:48.137Z,98713.03
2023-03-26T08:20:31.234Z,98716.09
2023-03-26T08:23:34.363Z,98711.00
2023-03-26T08:26:15.352Z,98709.59
2023-03-26T08:28:59.608Z,98715.06
2023-03-26T08:31:36.668Z,98712.50
2023-03-26T08:34:05.561Z,98698.88
2023-03-26T08:36:34.076Z,98701.16
2023-03-26T08:39:02.016Z,98703.94
2023-03-26T08:41:30.145Z,98705.66
2023-03-26T08:44:32.041Z,98696.72
2023-03-26T08:47:12.327Z,98699.63
2023-03-26T08:49:54.577Z,98702.75
2023-03-26T08:52:35.784Z,98702.97
2023-03-26T08:55:22.481Z,98694.59
2023-03-26T08:58:09.236Z,98705.37
2023-03-26T09:00:59.075Z,98693.38
2023-03-26T09:03:36.477Z,98688.16
2023-03-26T09:06:33.452Z,98685.84
2023-03-26T09:09:34.420Z,98691.88
2023-03-26T09:12:33.383Z,98689.44
2023-03-26T09:15:26.481Z,98685.19
2023-03-26T09:18:09.444Z,98685.84
2023-03-26T09:21:15.224Z,98691.19
2023-03-26T09:23:46.557Z,98682.84
2023-03-26T09:26:30.537Z,98681.66
2023-03-26T09:29:07.991Z,98677.38
2023-03-26T09:31:48.162Z,98669.81
2023-03-26T09:34:43.350Z,98662.63
2023-03-26T09:37:18.468Z,98664.63
2023-03-26T09:40:12.879Z,98665.16
2023-03-26T09:42:54.364Z,98653.78
2023-03-26T09:45:25.558Z,98648.59
2023-03-26T09:48:12.151Z,98644.72
2023-03-26T09:50:46.954Z,98644.25
2023-03-26T09:53:26.885Z,98647.53
2023-03-26T09:56:23.405Z,98635.53
2023-03-26T09:59:21.038Z,98618.59
2023-03-26T10:02:45.551Z,98607.34
2023-03-26T10:05:53.493Z,98603.34
2023-03-26T10:08:44.551Z,98623.06
2023-03-26T10:11:41.921Z,98633.50
2023-03-26T10:14:18.961Z,98628.91
2023-03-26T10:17:15.801Z,98625.78
2023-03-26T10:19:50.298Z,98630.50
2023-03-26T10:22:47.684Z,98618.00
2023-03-26T10:25:44.869Z,98610.88
2023-03-26T10:28:35.600Z,98611.78
2023-03-26T10:31:06.707Z,98598.78
2023-03-26T10:34:29.207Z,98594.72
2023-03-26T10:37:18.197Z,98591.78
2023-03-26T10:40:32.975Z,98584.75
2023-03-26T10:43:14.729Z,98569.22
2023-03-26T10:45:55.519Z,98566.41
2023-03-26T10:48:47.074Z,98569.81
2023-03-26T10:51:43.214Z,98560.69
2023-03-26T10:54:36.334Z,98558.63
2023-03-26T10:57:13.308Z,98550.31
2023-03-26T10:59:41.339Z,98549.81
2023-03-26T11:02:40.702Z,98546.13
2023-03-26T11:05:52.418Z,98547.75
2023-03-26T11:08:31.210Z,98540.22
2023-03-26T11:12:27.194Z,98538.47
2023-03-26T11:15:00.884Z,98535.13
2023-03-26T11:18:04.496Z,98520.16
2023-03-26T11:20:37.054Z,98500.00
2023-03-26T11:24:05.022Z,98521.94
2023-03-26T11:26:56.722Z,98521.78
2023-03-26T11:29:41.457Z,98516.03
2023-03-26T11:32:13.052Z,98498.28
2023-03-26T11:34:59.991Z,98491.19
2023-03-26T11:37:51.417Z,98481.56
2023-03-26T11:40:28.109Z,98467.06
2023-03-26T11:43:01.212Z,98457.62
2023-03-26T11:45:32.540Z,98458.28
2023-03-26T11:48:09.555Z,98457.03
2023-03-26T11:50:54.315Z,98444.13
2023-03-26T11:53:27.958Z,98441.84
2023-03-26T11:56:15.217Z,98435.00
2023-03-26T11:59:05.611Z,98438.87
2023-03-26T12:01:50.734Z,98424.06
2023-03-26T12:04:27.794Z,98422.69
2023-03-26T12:07:00.043Z,98420.00
2023-03-26T12:09:28.427Z,98411.53
2023-03-26T12:12:01.334Z,98404.12
2023-03-26T12:14:33.459Z,98396.81
2023-03-26T12:17:12.134Z,98395.13
2023-03-26T12:19:45.485Z,98384.78
2023-03-26T12:22:32.130Z,98376.69
2023-03-26T12:25:09.975Z,98370.91
2023-03-26T12:27:38.269Z,98371.31
2023-03-26T12:30:13.228Z,98373.03
2023-03-26T12:32:46.736Z,98370.37
2023-03-26T12:35:21.067Z,98354.53
2023-03-26T12:37:49.221Z,98350.19
2023-03-26T12:40:32.897Z,98342.25
2023-03-26T12:44:52.875Z,98340.81
2023-03-26T12:47:55.571Z,98342.44
2023-03-26T12:48:47.619Z,98339.09
2023-03-26T12:51:57.036Z,98331.13
2023-03-26T12:54:29.045Z,98335.97
2023-03-26T12:57:11.317Z,98336.28
2023-03-26T12:59:56.019Z,98324.81
2023-03-26T13:02:59.182Z,98332.22
2023-03-26T13:05:46.244Z,98316.53
2023-03-26T13:08:39.740Z,98315.16
2023-03-26T13:11:21.928Z,98295.19
2023-03-26T13:13:58.972Z,98297.78
2023-03-26T13:16:36.977Z,98282.41
2023-03-26T13:19:09.696Z,98296.97
2023-03-26T13:21:47.604Z,98289.72
2023-03-26T13:24:38.505Z,98272.00
2023-03-26T13:27:44.095Z,98282.12
2023-03-26T13:30:23.436Z,98275.06
2023-03-26T13:33:03.472Z,98261.31
2023-03-26T13:36:23.080Z,98266.09
2023-03-26T13:39:08.494Z,98257.38
2023-03-26T13:41:43.781Z,98250.28
2023-03-26T13:44:28.364Z,98247.16
2023-03-26T13:47:02.210Z,98256.78
2023-03-26T13:49:48.982Z,98247.66
2023-03-26T13:52:27.574Z,98244.81
2023-03-26T13:55:22.231Z,98241.28
2023-03-26T13:58:14.069Z,98219.16
2023-03-26T14:00:55.469Z,98215.00
2023-03-26T14:03:53.750Z,98223.25
2023-03-26T14:06:47.265Z,98208.84
2023-03-26T14:09:37.255Z,98202.50
2023-03-26T14:12:30.216Z,98206.06
2023-03-26T14:15:05.570Z,98200.81
2023-03-26T14:17:39.192Z,98197.41
2023-03-26T14:20:22.788Z,98193.84
2023-03-26T14:23:23.118Z,98187.00
2023-03-26T14:26:01.833Z,98190.72
2023-03-26T14:28:36.622Z,98191.75
2023-03-26T14:31:11.578Z,98185.72
2023-03-26T14:33:46.740Z,98182.25
2023-03-26T14:36:47.885Z,98172.69
2023-03-26T14:39:58.364Z,98176.78
2023-03-26T14:42:54.469Z,98174.66
2023-03-26T14:45:48.960Z,98170.22
2023-03-26T14:48:54.742Z,98172.28
2023-03-26T14:52:02.722Z,98160.59
2023-03-26T14:54:33.941Z,98160.72
2023-03-26T14:57:21.706Z,98150.72
2023-03-26T15:00:17.854Z,98141.22
2023-03-26T15:03:23.514Z,98139.34
2023-03-26T15:06:23.056Z,98134.00
2023-03-26T15:09:25.380Z,98120.78
2023-03-26T15:12:12.214Z,98121.59
2023-03-26T15:15:19.365Z,98116.09
2023-03-26T15:18:02.102Z,98118.59
2023-03-26T15:21:06.452Z,98118.75
2023-03-26T15:23:37.346Z,98099.78
2023-03-26T15:26:17.703Z,98115.09
2023-03-26T15:29:30.351Z,98100.81
2023-03-26T15:32:41.270Z,98096.94
2023-03-26T15:35:43.622Z,98096.34
2023-03-26T15:38:30.231Z,98091.28
2023-03-26T15:40:58.230Z,98101.38
2023-03-26T15:43:31.839Z,98100.69
2023-03-26T15:46:12.253Z,98089.44
2023-03-26T15:48:55.747Z,98084.16
2023-03-26T15:51:47.099Z,98085.47
2023-03-26T15:54:23.764Z,98085.38
2023-03-26T15:57:27.759Z,98075.34
2023-03-26T16:00:25.971Z,98068.44
2023-03-26T16:03:25.799Z,98067.03
2023-03-26T16:05:53.878Z,98068.28
2023-03-26T16:08:41.731Z,98062.19
2023-03-26T16:11:12.895Z,98048.88
2023-03-26T16:13:42.413Z,98039.81
2023-03-26T16:16:16.629Z,98037.94
2023-03-26T16:19:19.318Z,98028.63
2023-03-26T16:22:00.971Z,98029.19
2023-03-26T16:24:50.374Z,98015.72
2023-03-26T16:27:29.981Z,98016.91
2023-03-26T16:30:01.283Z,98013.41
2023-03-26T16:32:35.295Z,98002.94
2023-03-26T16:35:21.243Z,98008.47
2023-03-26T16:37:50.934Z,98007.84
2023-03-26T16:40:22.659Z,98000.94
2023-03-26T16:43:05.667Z,98006.47
2023-03-26T16:46:10.995Z,98014.19
2023-03-26T16:48:46.553Z,98009.84
2023-03-26T16:51:20.422Z,98011.16
2023-03-26T16:54:19.199Z,98002.88
2023-03-26T16:56:56.732Z,98001.25
2023-03-26T16:59:39.961Z,98009.25
2023-03-26T17:02:56.954Z,98010.41
2023-03-26T17:05:47.740Z,98003.97
2023-03-26T17:08:36.234Z,98003.53
2023-03-26T17:11:38.498Z,98002.94
2023-03-26T17:14:20.240Z,98001.75
2023-03-26T17:17:28.237Z,98009.53
2023-03-26T17:20:08.790Z,98001.00
2023-03-26T17:22:42.312Z,98006.81
2023-03-26T17:25:34.447Z,98005.41
2023-03-26T17:28:20.875Z,98002.19
2023-03-26T17:31:05.443Z,98009.59
2023-03-26T17:33:36.841Z,98000.03
2023-03-26T17:36:24.388Z,98004.69
2023-03-26T17:39:00.617Z,98001.84
2023-03-26T17:41:52.170Z,97989.97
2023-03-26T17:44:46.509Z,97998.88
2023-03-26T17:47:27.471Z,98007.69
2023-03-26T17:50:12.254Z,98002.41
2023-03-26T17:53:00.340Z,98006.88
2023-03-26T17:55:31.365Z,98003.66
2023-03-26T17:58:35.696Z,97994.91
2023-03-26T18:01:12.556Z,98003.53
2023-03-26T18:03:55.002Z,98003.91
2023-03-26T18:06:26.794Z,98002.38
2023-03-26T18:09:06.343Z,97998.56
2023-03-26T18:11:44.038Z,98003.37
2023-03-26T18:14:33.464Z,97995.66
2023-03-26T18:17:02.102Z,97999.13
2023-03-26T18:19:32.125Z,97998.03
2023-03-26T18:22:04.716Z,97999.56
2023-03-26T18:24:41.345Z,97997.13
2023-03-26T18:27:15.092Z,97999.34
2023-03-26T18:30:02.778Z,97994.25
2023-03-26T18:32:33.857Z,97986.38
2023-03-26T18:35:20.501Z,97988.78
2023-03-26T18:37:51.273Z,97980.87
2023-03-26T18:40:22.326Z,97982.72
2023-03-26T18:42:56.565Z,97978.91
2023-03-26T18:45:36.437Z,97967.19
2023-03-26T18:48:14.272Z,97968.22
2023-03-26T18:50:44.472Z,97969.50
2023-03-26T18:53:21.493Z,97967.03
2023-03-26T18:55:51.389Z,97957.28
2023-03-26T18:58:35.234Z,97957.50
2023-03-26T19:01:08.692Z,97946.13
2023-03-26T19:03:44.041Z,97947.91
2023-03-26T19:06:14.890Z,97942.37
2023-03-26T19:08:45.719Z,97944.75
2023-03-26T19:11:16.735Z,97941.44
2023-03-26T19:13:46.588Z,97926.66
2023-03-26T19:16:22.447Z,97937.78
2023-03-26T19:18:50.958Z,97921.78
2023-03-26T19:21:23.586Z,97922.69
2023-03-26T19:23:52.407Z,97916.09
2023-03-26T19:26:20.879Z,97913.88
2023-03-26T19:28:55.060Z,97921.75
2023-03-26T19:31:38.749Z,97908.47
2023-03-26T19:34:17.374Z,97907.16
2023-03-26T19:37:01.645Z,97899.81
2023-03-26T19:39:53.083Z,97892.75
2023-03-26T19:42:43.735Z,97882.34
2023-03-26T19:45:23.820Z,97878.31
2023-03-26T19:48:07.466Z,97873.13
2023-03-26T19:50:52.994Z,97859.63
2023-03-26T19:53:34.961Z,97861.94
2023-03-26T19:56:11.141Z,97854.19
2023-03-26T19:58:43.198Z,97847.41
2023-03-26T20:01:19.325Z,97838.81
2023-03-26T20:03:50.316Z,97827.53
2023-03-26T20:06:25.572Z,97826.56
2023-03-26T20:08:59.805Z,97815.28
2023-03-26T20:11:33.686Z,97810.00
2023-03-26T20:14:02.404Z,97812.84
2023-03-26T20:16:32.305Z,97812.69
2023-03-26T20:19:04.481Z,97803.59
2023-03-26T20:21:34.856Z,97798.47
2023-03-26T20:24:10.799Z,97792.97
2023-03-26T20:26:39.186Z,97790.91
2023-03-26T20:29:07.297Z,97788.47
2023-03-26T20:31:35.370Z,97786.03
2023-03-26T20:34:16.982Z,97781.09
2023-03-26T20:36:45.855Z,97772.06
2023-03-26T20:39:14.636Z,97767.44
2023-03-26T20:41:47.476Z,97770.28
2023-03-26T20:44:18.202Z,97767.72
2023-03-26T20:46:48.533Z,97772.41
2023-03-26T20:49:18.384Z,97763.47
2023-03-26T20:51:47.025Z,97762.63
2023-03-26T20:54:21.653Z,97754.41
2023-03-26T20:56:50.995Z,97752.34
2023-03-26T20:59:27.002Z,97757.22
2023-03-26T21:01:57.189Z,97746.88
2023-03-26T21:04:26.505Z,97745.97
2023-03-26T21:07:00.381Z,97742.44
2023-03-26T21:09:34.345Z,97757.91
2023-03-26T21:12:05.861Z,97759.47
2023-03-26T21:14:39.458Z,97782.13
2023-03-26T21:17:14.666Z,97800.66
2023-03-26T21:19:44.189Z,97797.00
2023-03-26T21:23:08.098Z,97804.13
2023-03-26T21:26:01.504Z,97800.41
2023-03-26T21:28:46.783Z,97793.22
2023-03-26T21:31:24.406Z,97791.31
2023-03-26T21:33:52.988Z,97792.06
2023-03-26T21:36:21.777Z,97789.28
2023-03-26T21:38:50.788Z,97787.53
2023-03-26T21:41:24.851Z,97794.09
2023-03-26T21:43:53.219Z,97791.28
2023-03-26T21:46:22.160Z,97787.59
2023-03-26T21:48:50.549Z,97792.81
2023-03-26T21:51:19.359Z,97795.78
2023-03-26T21:53:47.739Z,97788.91
2023-03-26T21:56:26.276Z,97791.31
2023-03-26T21:58:57.720Z,97796.25
2023-03-26T22:01:44.523Z,97797.63
2023-03-26T22:04:28.288Z,97795.16
2023-03-26T22:07:12.238Z,97806.50
2023-03-26T22:09:41.180Z,97802.88
2023-03-26T22:12:10.831Z,97810.00
2023-03-26T22:14:39.166Z,97804.94
2023-03-26T22:17:07.577Z,97809.44
2023-03-26T22:19:36.193Z,97805.97
2023-03-26T22:22:04.466Z,97802.31
2023-03-26T22:24:33.198Z,97808.13
2023-03-26T22:27:01.609Z,97798.87
2023-03-26T22:29:29.674Z,97784.16
2023-03-26T22:31:58.133Z,97778.91
2023-03-26T22:34:26.366Z,97775.03
2023-03-26T22:36:54.491Z,97769.03
2023-03-26T22:39:23.054Z,97765.06
2023-03-26T22:41:51.111Z,97757.75
2023-03-26T22:44:20.570Z,97747.16
2023-03-26T22:46:51.744Z,97755.50
2023-03-26T22:49:20.038Z,97742.63
2023-03-26T22:51:50.424Z,97740.91
2023-03-26T22:54:18.581Z,97733.31
2023-03-26T22:56:47.202Z,97732.88
2023-03-26T22:59:15.815Z,97724.78
2023-03-26T23:01:44.545Z,97727.59
2023-03-26T23:04:13.186Z,97728.38
2023-03-26T23:07:00.697Z,97715.94
2023-03-26T23:09:29.693Z,97719.53
2023-03-26T23:11:58.080Z,97722.00
2023-03-26T23:14:26.467Z,97715.00
2023-03-26T23:16:55.194Z,97712.19
2023-03-26T23:19:23.190Z,97701.91
2023-03-26T23:21:51.813Z,97691.94
2023-03-26T23:24:20.016Z,97690.22
2023-03-26T23:26:51.030Z,97684.59
2023-03-26T23:29:19.853Z,97682.72
2023-03-26T23:31:48.084Z,97676.47
2023-03-26T23:34:17.271Z,97671.75
2023-03-26T23:36:45.743Z,97672.91
2023-03-26T23:39:13.819Z,97658.75
2023-03-26T23:41:41.867Z,97656.72
2023-03-26T23:44:13.760Z,97653.22
2023-03-26T23:46:44.736Z,97655.88
2023-03-26T23:49:13.214Z,97651.16
2023-03-26T23:51:42.328Z,97646.84
2023-03-26T23:54:11.758Z,97637.38
2023-03-26T23:56:40.030Z,97634.53
2023-03-26T23:59:08.666Z,97623.34
